Time;durP1;ratioP1;P1;durP2;ratioP2;P2;SDS_P1;SDS_P2;PMS_P1;PMS_P2;Temp;Humidity;BMP_temperature;BMP_pressure;BME280_temperature;BME280_humidity;BME280_pressure;Samples;Min_cycle;Max_cycle;Signal;HPM_P1;HPM_P2
2021/12/06 00:00:27;;;;;;;43.33;19.85;;;;;;;;;;5027504;28;20052;-67
2021/12/06 00:02:54;;;;;;;40.28;18.83;;;;;;;;;;5026691;28;20022;-67
2021/12/06 00:05:22;;;;;;;44.95;19.95;;;;;;;;;;5026825;28;20030;-67
2021/12/06 00:07:47;;;;;;;41.50;19.50;;;;;;;;;;5025458;28;20026;-67
2021/12/06 00:10:13;;;;;;;41.25;18.70;;;;;;;;;;5023115;28;20044;-67
2021/12/06 00:12:39;;;;;;;41.50;19.30;;;;;;;;;;5028394;28;20029;-67
2021/12/06 00:15:05;;;;;;;42.45;19.83;;;;;;;;;;5023693;28;20041;-67
2021/12/06 00:17:31;;;;;;;43.50;19.92;;;;;;;;;;5004962;28;20018;-67
2021/12/06 00:19:57;;;;;;;46.72;20.13;;;;;;;;;;5014682;28;20107;-67
2021/12/06 00:22:23;;;;;;;49.33;20.67;;;;;;;;;;5010544;28;20064;-67
2021/12/06 00:24:54;;;;;;;40.47;19.27;;;;;;;;;;5025072;28;20060;-67
2021/12/06 00:27:19;;;;;;;44.63;19.35;;;;;;;;;;5026046;28;20117;-67
2021/12/06 00:29:46;;;;;;;43.35;19.30;;;;;;;;;;5008890;28;20147;-67
2021/12/06 00:32:11;;;;;;;43.28;20.90;;;;;;;;;;5006994;28;20029;-67
2021/12/06 00:34:38;;;;;;;43.83;19.98;;;;;;;;;;5026764;28;20061;-67
2021/12/06 00:37:18;;;;;;;42.40;19.75;;;;;;;;;;5021421;28;20522;-67
2021/12/06 00:39:45;;;;;;;43.22;21.75;;;;;;;;;;5027433;28;20040;-67
2021/12/06 00:42:11;;;;;;;43.90;20.70;;;;;;;;;;5026007;28;20462;-67
2021/12/06 00:44:36;;;;;;;41.47;19.63;;;;;;;;;;5014365;28;20494;-67
2021/12/06 00:47:02;;;;;;;42.10;19.52;;;;;;;;;;5007004;28;20113;-67
2021/12/06 00:49:28;;;;;;;45.97;21.58;;;;;;;;;;5016470;28;20072;-67
2021/12/06 00:51:53;;;;;;;47.65;21.63;;;;;;;;;;5004663;28;20038;-67
2021/12/06 00:54:19;;;;;;;46.38;21.85;;;;;;;;;;5008109;28;20066;-67
2021/12/06 00:56:44;;;;;;;44.58;19.55;;;;;;;;;;5010074;28;20068;-67
2021/12/06 00:59:10;;;;;;;42.08;20.10;;;;;;;;;;5021097;28;20048;-67
2021/12/06 01:01:36;;;;;;;42.67;19.70;;;;;;;;;;5015060;28;20041;-67
2021/12/06 01:04:01;;;;;;;40.05;19.27;;;;;;;;;;5012811;28;20033;-67
2021/12/06 01:06:27;;;;;;;40.20;19.45;;;;;;;;;;5007235;28;20070;-67
2021/12/06 01:08:52;;;;;;;41.67;19.38;;;;;;;;;;5018261;28;20021;-67
2021/12/06 01:11:17;;;;;;;39.15;20.23;;;;;;;;;;5011752;28;20487;-67
2021/12/06 01:13:43;;;;;;;42.83;20.55;;;;;;;;;;5000449;28;20048;-67
2021/12/06 01:16:09;;;;;;;39.58;18.92;;;;;;;;;;5013620;28;20530;-67
2021/12/06 01:18:35;;;;;;;40.55;18.50;;;;;;;;;;5025920;28;20036;-67
2021/12/06 01:21:14;;;;;;;37.80;17.52;;;;;;;;;;5015502;28;20087;-67
2021/12/06 01:23:58;;;;;;;36.30;17.83;;;;;;;;;;5024885;28;20108;-67
2021/12/06 01:29:24;;;;;;;39.58;17.38;;;;;;;;;;5019145;28;20562;-67
2021/12/06 01:32:01;;;;;;;38.63;17.42;;;;;;;;;;5020958;28;20593;-67
2021/12/06 01:39:55;;;;;;;30.70;15.13;;;;;;;;;;5020191;28;20064;-67
2021/12/06 01:42:20;;;;;;;28.98;14.32;;;;;;;;;;5019784;28;20045;-67
2021/12/06 01:44:52;;;;;;;31.55;13.90;;;;;;;;;;5011324;28;20083;-67
2021/12/06 01:47:20;;;;;;;27.02;13.10;;;;;;;;;;5030873;28;20112;-67
2021/12/06 01:49:53;;;;;;;28.77;13.75;;;;;;;;;;5030604;28;20776;-67
2021/12/06 01:52:22;;;;;;;24.60;12.80;;;;;;;;;;5029577;28;20499;-67
2021/12/06 01:54:49;;;;;;;27.73;12.77;;;;;;;;;;5025869;28;20041;-67
2021/12/06 01:57:15;;;;;;;26.48;12.27;;;;;;;;;;5029129;28;20037;-68
2021/12/06 01:59:40;;;;;;;29.00;14.23;;;;;;;;;;5031228;28;20029;-67
2021/12/06 02:02:07;;;;;;;35.63;15.65;;;;;;;;;;5016440;28;20041;-67
2021/12/06 02:04:35;;;;;;;31.50;15.40;;;;;;;;;;5029158;28;20075;-67
2021/12/06 02:07:02;;;;;;;31.10;14.15;;;;;;;;;;5028521;28;20124;-67
2021/12/06 02:09:28;;;;;;;35.80;15.48;;;;;;;;;;5030205;28;20037;-67
2021/12/06 02:11:56;;;;;;;33.30;16.10;;;;;;;;;;5028816;28;20091;-67
2021/12/06 02:17:11;;;;;;;38.05;17.27;;;;;;;;;;5026787;28;20038;-67
2021/12/06 02:19:42;;;;;;;37.25;17.27;;;;;;;;;;5027049;28;20674;-67
2021/12/06 02:22:11;;;;;;;35.05;15.73;;;;;;;;;;5031006;28;20041;-67
2021/12/06 02:24:38;;;;;;;34.53;15.88;;;;;;;;;;5029001;28;20080;-67
2021/12/06 02:27:04;;;;;;;34.70;16.83;;;;;;;;;;5028285;28;20025;-67
2021/12/06 02:29:30;;;;;;;36.28;17.00;;;;;;;;;;5029623;28;20032;-67
2021/12/06 02:31:56;;;;;;;36.17;17.10;;;;;;;;;;5029717;28;20049;-67
2021/12/06 02:34:21;;;;;;;31.58;16.35;;;;;;;;;;5029628;28;20041;-67
2021/12/06 02:36:47;;;;;;;31.75;15.05;;;;;;;;;;5028390;28;20034;-67
2021/12/06 02:39:20;;;;;;;32.22;15.20;;;;;;;;;;5032358;28;20130;-67
2021/12/06 02:41:48;;;;;;;33.67;15.93;;;;;;;;;;5030918;28;20049;-67
2021/12/06 02:44:14;;;;;;;36.72;17.50;;;;;;;;;;5024346;28;20029;-67
2021/12/06 02:46:40;;;;;;;35.83;16.17;;;;;;;;;;5029864;28;20048;-68
2021/12/06 02:49:06;;;;;;;32.78;15.93;;;;;;;;;;5030200;28;20033;-67
2021/12/06 02:51:31;;;;;;;35.38;16.20;;;;;;;;;;5027551;28;20472;-67
2021/12/06 02:53:57;;;;;;;32.83;15.30;;;;;;;;;;5028153;28;20544;-67
2021/12/06 02:56:35;;;;;;;32.80;16.65;;;;;;;;;;5029143;28;20075;-67
2021/12/06 02:59:09;;;;;;;36.55;17.83;;;;;;;;;;5029895;28;20403;-67
2021/12/06 03:01:41;;;;;;;33.90;16.70;;;;;;;;;;5029895;28;20040;-67
2021/12/06 03:04:08;;;;;;;35.38;17.45;;;;;;;;;;5010877;28;20150;-67
2021/12/06 03:06:35;;;;;;;36.35;17.60;;;;;;;;;;5025198;28;20519;-67
2021/12/06 03:09:07;;;;;;;36.45;16.15;;;;;;;;;;5029118;28;20025;-67
2021/12/06 03:11:38;;;;;;;33.20;15.93;;;;;;;;;;5010482;28;20475;-67
2021/12/06 03:14:04;;;;;;;39.65;17.15;;;;;;;;;;5029685;28;20534;-67
2021/12/06 03:16:30;;;;;;;41.10;17.08;;;;;;;;;;5028663;28;20124;-67
2021/12/06 03:18:56;;;;;;;40.53;18.58;;;;;;;;;;5028992;28;20192;-67
2021/12/06 03:21:23;;;;;;;30.20;15.45;;;;;;;;;;5029601;28;20053;-68
2021/12/06 03:23:50;;;;;;;39.50;17.15;;;;;;;;;;5009688;28;20033;-67
2021/12/06 03:26:16;;;;;;;36.78;17.45;;;;;;;;;;5029705;28;20029;-67
2021/12/06 03:28:43;;;;;;;37.15;16.67;;;;;;;;;;5027280;28;20048;-67
2021/12/06 03:31:10;;;;;;;41.83;18.98;;;;;;;;;;5018907;28;20112;-67
2021/12/06 03:33:37;;;;;;;38.22;17.02;;;;;;;;;;5028629;28;20043;-67
2021/12/06 03:36:05;;;;;;;36.78;16.58;;;;;;;;;;5029326;28;20036;-67
2021/12/06 03:38:31;;;;;;;35.42;16.95;;;;;;;;;;5021572;28;20499;-67
2021/12/06 03:40:57;;;;;;;40.00;17.95;;;;;;;;;;5028112;28;20042;-67
2021/12/06 03:43:23;;;;;;;33.97;16.45;;;;;;;;;;5028803;28;20051;-67
2021/12/06 03:45:49;;;;;;;38.90;17.75;;;;;;;;;;5028590;28;20045;-67
2021/12/06 03:48:14;;;;;;;38.83;16.75;;;;;;;;;;5025667;28;20045;-67
2021/12/06 03:50:40;;;;;;;41.47;16.58;;;;;;;;;;5030170;28;20048;-67
2021/12/06 03:53:05;;;;;;;35.38;16.48;;;;;;;;;;5030434;28;20064;-67
2021/12/06 03:55:30;;;;;;;36.80;17.13;;;;;;;;;;5028484;28;20581;-67
2021/12/06 03:57:56;;;;;;;31.95;15.75;;;;;;;;;;5023076;28;20038;-67
2021/12/06 04:00:21;;;;;;;38.95;16.75;;;;;;;;;;5030250;28;20506;-67
2021/12/06 04:02:47;;;;;;;31.98;15.30;;;;;;;;;;5029793;28;20025;-67
2021/12/06 04:05:12;;;;;;;33.05;15.70;;;;;;;;;;5028742;28;20029;-67
2021/12/06 04:07:38;;;;;;;33.92;15.25;;;;;;;;;;5028449;28;20049;-67
2021/12/06 04:10:06;;;;;;;35.50;17.85;;;;;;;;;;5027105;28;20037;-67
2021/12/06 04:12:31;;;;;;;37.40;16.48;;;;;;;;;;5030129;28;20041;-67
2021/12/06 04:14:58;;;;;;;33.53;15.95;;;;;;;;;;5029741;28;20028;-67
2021/12/06 04:17:23;;;;;;;32.95;15.68;;;;;;;;;;5011912;28;20422;-67
2021/12/06 04:19:49;;;;;;;39.83;16.52;;;;;;;;;;5030112;28;20515;-67
2021/12/06 04:22:15;;;;;;;33.13;15.70;;;;;;;;;;5025768;28;20029;-67
2021/12/06 04:24:40;;;;;;;35.20;14.93;;;;;;;;;;5017337;28;20042;-67
2021/12/06 04:27:13;;;;;;;35.38;15.50;;;;;;;;;;5026923;28;20041;-67
2021/12/06 04:29:44;;;;;;;37.30;16.15;;;;;;;;;;5030837;28;20033;-67
2021/12/06 04:32:10;;;;;;;30.98;15.27;;;;;;;;;;5029963;28;20052;-67
2021/12/06 04:34:35;;;;;;;35.50;15.93;;;;;;;;;;5028623;28;20033;-67
2021/12/06 04:37:01;;;;;;;37.42;16.10;;;;;;;;;;5028990;28;20537;-67
2021/12/06 04:39:28;;;;;;;32.80;15.57;;;;;;;;;;5034319;28;20730;-67
2021/12/06 04:41:53;;;;;;;31.52;14.73;;;;;;;;;;5029044;28;20045;-67
2021/12/06 04:44:19;;;;;;;36.30;16.90;;;;;;;;;;5030167;28;20108;-67
2021/12/06 04:46:45;;;;;;;38.55;16.50;;;;;;;;;;5029079;28;20128;-68
2021/12/06 04:49:11;;;;;;;33.20;15.32;;;;;;;;;;5026913;28;20056;-67
2021/12/06 04:51:39;;;;;;;30.17;14.65;;;;;;;;;;5028996;28;20041;-67
2021/12/06 04:54:05;;;;;;;33.97;14.48;;;;;;;;;;5029702;28;20061;-67
2021/12/06 04:56:37;;;;;;;34.65;15.55;;;;;;;;;;5031322;28;20036;-67
2021/12/06 04:59:11;;;;;;;31.50;14.38;;;;;;;;;;5027718;28;20140;-67
2021/12/06 05:01:37;;;;;;;33.20;15.20;;;;;;;;;;5033647;28;20048;-67
2021/12/06 05:04:13;;;;;;;31.45;14.50;;;;;;;;;;5030686;28;20037;-67
2021/12/06 05:06:42;;;;;;;36.30;15.80;;;;;;;;;;5033522;28;20099;-68
2021/12/06 05:09:14;;;;;;;33.17;14.68;;;;;;;;;;5033317;28;20444;-67
2021/12/06 05:11:40;;;;;;;29.17;14.02;;;;;;;;;;5033965;28;20032;-67
2021/12/06 05:14:05;;;;;;;22.05;11.13;;;;;;;;;;5032877;28;20033;-67
2021/12/06 05:16:33;;;;;;;25.20;12.35;;;;;;;;;;5033508;28;20033;-67
2021/12/06 05:18:59;;;;;;;109.30;13.32;;;;;;;;;;5032714;28;20132;-67
2021/12/06 05:21:25;;;;;;;68.45;12.80;;;;;;;;;;5031519;28;20120;-67
2021/12/06 05:23:51;;;;;;;27.25;11.65;;;;;;;;;;5012898;28;20379;-67
2021/12/06 05:26:16;;;;;;;28.52;13.05;;;;;;;;;;5031908;28;20087;-68
2021/12/06 05:28:43;;;;;;;29.63;13.25;;;;;;;;;;5031689;28;20037;-67
2021/12/06 05:31:15;;;;;;;27.92;11.50;;;;;;;;;;5027687;28;20109;-67
2021/12/06 05:33:47;;;;;;;25.05;12.15;;;;;;;;;;5032426;28;20033;-67
2021/12/06 05:36:13;;;;;;;27.42;12.35;;;;;;;;;;5033172;28;20060;-67
2021/12/06 05:38:39;;;;;;;28.33;12.82;;;;;;;;;;5011023;28;20155;-67
2021/12/06 05:41:06;;;;;;;26.27;12.65;;;;;;;;;;5012184;28;20080;-67
2021/12/06 05:43:32;;;;;;;30.15;13.45;;;;;;;;;;5031011;28;20140;-67
2021/12/06 05:45:57;;;;;;;28.85;13.07;;;;;;;;;;5030904;28;20091;-67
2021/12/06 05:48:23;;;;;;;32.83;14.10;;;;;;;;;;5013707;28;20037;-67
2021/12/06 05:50:48;;;;;;;23.88;12.07;;;;;;;;;;5026454;28;20037;-67
2021/12/06 05:53:14;;;;;;;28.27;13.07;;;;;;;;;;5029334;28;20029;-67
2021/12/06 05:55:41;;;;;;;27.63;12.82;;;;;;;;;;5028135;28;20052;-67
2021/12/06 05:58:08;;;;;;;25.88;11.95;;;;;;;;;;5030830;28;20523;-67
2021/12/06 06:00:35;;;;;;;28.85;13.20;;;;;;;;;;5022131;28;20519;-67
2021/12/06 06:03:03;;;;;;;26.35;12.00;;;;;;;;;;5030646;28;20040;-67
2021/12/06 06:05:29;;;;;;;26.20;12.70;;;;;;;;;;5033268;28;20041;-67
2021/12/06 06:07:55;;;;;;;30.48;12.48;;;;;;;;;;5032150;28;20041;-67
2021/12/06 06:10:20;;;;;;;62.72;14.15;;;;;;;;;;5005716;28;20117;-67
2021/12/06 06:12:46;;;;;;;50.78;14.15;;;;;;;;;;5031922;28;20047;-67
2021/12/06 06:15:12;;;;;;;34.40;13.38;;;;;;;;;;5031994;28;20506;-67
2021/12/06 06:17:43;;;;;;;68.55;12.90;;;;;;;;;;5031261;28;20033;-67
2021/12/06 06:20:17;;;;;;;34.05;13.70;;;;;;;;;;5023369;28;20559;-67
2021/12/06 06:22:43;;;;;;;33.53;13.32;;;;;;;;;;5024017;28;20072;-67
2021/12/06 06:25:09;;;;;;;79.65;14.20;;;;;;;;;;5031559;28;20510;-67
2021/12/06 06:27:34;;;;;;;73.68;14.32;;;;;;;;;;5028816;28;20206;-67
2021/12/06 06:30:00;;;;;;;70.38;13.63;;;;;;;;;;5030791;28;20040;-67
2021/12/06 06:32:25;;;;;;;42.50;13.30;;;;;;;;;;5032680;28;20714;-67
2021/12/06 06:34:51;;;;;;;91.90;16.13;;;;;;;;;;5031257;28;20180;-67
2021/12/06 06:37:16;;;;;;;149.18;17.90;;;;;;;;;;5009804;28;20419;-67
2021/12/06 06:39:42;;;;;;;189.25;16.65;;;;;;;;;;5027523;28;20048;-67
2021/12/06 06:42:08;;;;;;;169.60;15.82;;;;;;;;;;5030988;28;20072;-67
2021/12/06 06:44:33;;;;;;;199.13;17.13;;;;;;;;;;5030559;28;20029;-67
2021/12/06 06:46:58;;;;;;;111.15;15.38;;;;;;;;;;5030547;28;20407;-67
2021/12/06 06:49:25;;;;;;;113.03;14.75;;;;;;;;;;5011765;28;20040;-67
2021/12/06 06:51:51;;;;;;;163.68;15.60;;;;;;;;;;5028164;28;20033;-67
2021/12/06 06:54:16;;;;;;;132.15;14.65;;;;;;;;;;5031309;28;20048;-67
2021/12/06 06:56:42;;;;;;;102.18;15.23;;;;;;;;;;5030101;28;20028;-67
2021/12/06 06:59:07;;;;;;;119.82;13.35;;;;;;;;;;5031308;28;20056;-67
2021/12/06 07:01:33;;;;;;;123.82;13.77;;;;;;;;;;5028992;28;20168;-67
2021/12/06 07:03:59;;;;;;;184.82;26.50;;;;;;;;;;5030761;28;20467;-67
2021/12/06 07:06:27;;;;;;;158.63;14.93;;;;;;;;;;5025976;28;20168;-67
2021/12/06 07:08:54;;;;;;;242.88;16.25;;;;;;;;;;5014709;28;20372;-67
2021/12/06 07:11:21;;;;;;;161.50;15.23;;;;;;;;;;5030304;28;20557;-67
2021/12/06 07:13:47;;;;;;;127.55;14.63;;;;;;;;;;5029701;28;20696;-67
2021/12/06 07:16:14;;;;;;;348.52;18.45;;;;;;;;;;5003696;28;20045;-67
2021/12/06 07:18:39;;;;;;;119.43;12.68;;;;;;;;;;5028085;28;20048;-67
2021/12/06 07:21:05;;;;;;;88.57;12.40;;;;;;;;;;5026774;28;20037;-69
2021/12/06 07:23:30;;;;;;;216.70;14.55;;;;;;;;;;5031009;28;20103;-69
2021/12/06 07:25:56;;;;;;;156.20;14.77;;;;;;;;;;5026232;28;20041;-69
2021/12/06 07:28:21;;;;;;;101.47;12.80;;;;;;;;;;5030762;28;20082;-68
2021/12/06 07:30:47;;;;;;;163.55;13.75;;;;;;;;;;5024152;28;20067;-69
2021/12/06 07:33:12;;;;;;;59.92;10.82;;;;;;;;;;5029014;28;20038;-67
2021/12/06 07:35:37;;;;;;;49.03;10.07;;;;;;;;;;5023364;28;20030;-67
2021/12/06 07:38:05;;;;;;;24.10;9.93;;;;;;;;;;5020429;28;20599;-67
2021/12/06 07:40:31;;;;;;;24.25;10.30;;;;;;;;;;5025140;28;20037;-66
2021/12/06 07:42:57;;;;;;;22.45;10.70;;;;;;;;;;5026345;28;20038;-67
2021/12/06 07:45:23;;;;;;;66.47;30.30;;;;;;;;;;5027031;28;20044;-66
2021/12/06 07:47:49;;;;;;;34.78;14.82;;;;;;;;;;5025730;28;20380;-66
2021/12/06 07:50:17;;;;;;;24.83;11.40;;;;;;;;;;5024212;28;20025;-66
2021/12/06 07:52:44;;;;;;;28.35;12.63;;;;;;;;;;5029964;28;20034;-66
2021/12/06 07:55:13;;;;;;;28.60;13.82;;;;;;;;;;5026194;28;20134;-66
2021/12/06 07:57:39;;;;;;;33.25;13.50;;;;;;;;;;5026629;28;20037;-66
2021/12/06 08:00:08;;;;;;;32.13;14.05;;;;;;;;;;5024704;28;20059;-66
2021/12/06 08:02:34;;;;;;;31.80;15.63;;;;;;;;;;5021654;28;20407;-66
2021/12/06 08:05:29;;;;;;;34.67;14.02;;;;;;;;;;5020862;28;20044;-66
2021/12/06 08:07:45;;;;;;;29.90;13.38;;;;;;;;;;5026224;28;20443;-66
2021/12/06 08:10:10;;;;;;;31.33;14.98;;;;;;;;;;5026376;28;20537;-66
2021/12/06 08:12:35;;;;;;;24.35;12.32;;;;;;;;;;5024976;28;20107;-66
2021/12/06 08:15:01;;;;;;;25.58;12.40;;;;;;;;;;5025873;28;20160;-67
2021/12/06 08:17:26;;;;;;;25.35;11.55;;;;;;;;;;5025278;28;20941;-66
2021/12/06 08:19:51;;;;;;;25.27;10.88;;;;;;;;;;5024045;28;20033;-66
2021/12/06 08:22:17;;;;;;;26.42;12.18;;;;;;;;;;5023787;28;20047;-66
2021/12/06 08:24:42;;;;;;;20.23;10.93;;;;;;;;;;5025925;28;20128;-66
2021/12/06 08:27:07;;;;;;;23.08;10.40;;;;;;;;;;5024023;28;20478;-68
2021/12/06 08:29:33;;;;;;;24.10;11.10;;;;;;;;;;5024075;28;20131;-69
2021/12/06 08:31:58;;;;;;;19.27;10.65;;;;;;;;;;5019779;28;20041;-69
2021/12/06 08:34:23;;;;;;;19.73;10.35;;;;;;;;;;5022836;28;20034;-69
2021/12/06 08:36:49;;;;;;;25.48;11.82;;;;;;;;;;5024733;28;20064;-70
2021/12/06 08:39:14;;;;;;;23.38;11.90;;;;;;;;;;5025410;28;20073;-69
2021/12/06 08:41:39;;;;;;;29.38;13.23;;;;;;;;;;5026203;28;20503;-69
2021/12/06 08:44:06;;;;;;;25.45;12.25;;;;;;;;;;5012830;28;20041;-69
2021/12/06 08:46:35;;;;;;;29.20;13.35;;;;;;;;;;5018899;28;20053;-69
2021/12/06 08:49:04;;;;;;;28.35;14.20;;;;;;;;;;5020059;28;20038;-67
2021/12/06 08:51:40;;;;;;;32.03;14.75;;;;;;;;;;5024796;28;20131;-67
2021/12/06 08:54:07;;;;;;;32.50;14.40;;;;;;;;;;5020584;28;20049;-67
2021/12/06 08:56:33;;;;;;;32.67;15.10;;;;;;;;;;5024393;28;20033;-67
2021/12/06 08:58:59;;;;;;;36.70;16.05;;;;;;;;;;5024094;28;20159;-66
2021/12/06 09:01:25;;;;;;;33.10;15.85;;;;;;;;;;5022512;28;20045;-67
2021/12/06 09:03:51;;;;;;;38.38;17.50;;;;;;;;;;5025306;28;20041;-66
2021/12/06 09:06:17;;;;;;;39.08;18.42;;;;;;;;;;5025793;28;20079;-66
2021/12/06 09:08:43;;;;;;;35.40;15.95;;;;;;;;;;5021053;28;20029;-67
2021/12/06 09:11:09;;;;;;;37.42;16.50;;;;;;;;;;5021300;28;20443;-66
2021/12/06 09:13:36;;;;;;;35.65;16.52;;;;;;;;;;5007198;28;20526;-66
2021/12/06 09:16:04;;;;;;;30.90;14.82;;;;;;;;;;5025562;28;20045;-65
2021/12/06 09:18:34;;;;;;;38.95;16.15;;;;;;;;;;5020945;28;20396;-65
2021/12/06 09:21:02;;;;;;;35.90;15.73;;;;;;;;;;5024802;28;20030;-65
2021/12/06 09:23:28;;;;;;;37.85;16.50;;;;;;;;;;5024885;28;20032;-65
2021/12/06 09:25:54;;;;;;;34.47;15.20;;;;;;;;;;5007659;28;20045;-67
2021/12/06 09:28:19;;;;;;;38.08;17.02;;;;;;;;;;5025545;28;20043;-68
2021/12/06 09:30:46;;;;;;;36.90;16.30;;;;;;;;;;5021027;28;20033;-70
2021/12/06 09:33:15;;;;;;;32.67;14.68;;;;;;;;;;5017261;28;20038;-70
2021/12/06 09:35:44;;;;;;;32.40;15.52;;;;;;;;;;5020735;28;20041;-70
2021/12/06 09:38:11;;;;;;;36.22;15.80;;;;;;;;;;5022197;28;20056;-70
2021/12/06 09:40:40;;;;;;;30.25;14.75;;;;;;;;;;5025307;28;20046;-71
2021/12/06 09:43:08;;;;;;;32.70;15.68;;;;;;;;;;5021932;28;20415;-70
2021/12/06 09:45:34;;;;;;;30.90;14.35;;;;;;;;;;5025169;28;20034;-69
2021/12/06 09:48:01;;;;;;;24.48;11.18;;;;;;;;;;5030599;28;20191;-71
2021/12/06 09:50:39;;;;;;;25.60;10.93;;;;;;;;;;5029341;28;20040;-71
2021/12/06 09:53:08;;;;;;;19.13;9.40;;;;;;;;;;5030855;28;20056;-71
2021/12/06 09:55:34;;;;;;;20.10;9.48;;;;;;;;;;5025600;28;20133;-70
2021/12/06 09:58:00;;;;;;;20.58;10.05;;;;;;;;;;5027621;28;20038;-71
2021/12/06 10:00:30;;;;;;;19.13;8.60;;;;;;;;;;5027208;28;20087;-68
2021/12/06 10:02:55;;;;;;;27.85;12.43;;;;;;;;;;5021513;28;20065;-67
2021/12/06 10:05:26;;;;;;;19.75;9.63;;;;;;;;;;5028491;28;20064;-68
2021/12/06 10:07:53;;;;;;;23.58;11.23;;;;;;;;;;5027698;28;20041;-66
2021/12/06 10:10:18;;;;;;;27.92;11.20;;;;;;;;;;5026901;28;20039;-65
2021/12/06 10:12:48;;;;;;;23.15;11.15;;;;;;;;;;5029378;28;20038;-65
2021/12/06 10:15:13;;;;;;;21.45;10.40;;;;;;;;;;5026843;28;20125;-65
2021/12/06 10:17:40;;;;;;;19.60;9.05;;;;;;;;;;5027551;28;20112;-65
2021/12/06 10:20:08;;;;;;;14.23;6.10;;;;;;;;;;5025611;28;20087;-66
2021/12/06 10:22:33;;;;;;;4.40;3.58;;;;;;;;;;5025861;28;20064;-66
2021/12/06 10:25:00;;;;;;;16.95;7.55;;;;;;;;;;5026297;28;20064;-65
2021/12/06 10:27:26;;;;;;;14.60;7.32;;;;;;;;;;5025395;28;20133;-65
2021/12/06 10:29:59;;;;;;;10.85;5.45;;;;;;;;;;5027797;28;20033;-66
2021/12/06 10:32:28;;;;;;;15.43;7.65;;;;;;;;;;5007492;28;20502;-65
2021/12/06 10:35:00;;;;;;;19.45;8.68;;;;;;;;;;5008585;28;20507;-65
2021/12/06 10:37:30;;;;;;;13.63;6.05;;;;;;;;;;5027237;28;20519;-65
2021/12/06 10:39:55;;;;;;;15.48;6.70;;;;;;;;;;5025229;28;20107;-65
2021/12/06 10:42:29;;;;;;;18.05;8.95;;;;;;;;;;5025086;28;20045;-66
2021/12/06 10:44:59;;;;;;;14.18;6.60;;;;;;;;;;5030503;28;20521;-65
2021/12/06 10:47:24;;;;;;;14.15;6.20;;;;;;;;;;5027081;28;20025;-65
2021/12/06 10:49:49;;;;;;;14.02;5.38;;;;;;;;;;5024599;28;20038;-65
2021/12/06 10:52:28;;;;;;;20.70;7.70;;;;;;;;;;5021807;28;20720;-65
2021/12/06 10:54:55;;;;;;;10.05;5.05;;;;;;;;;;5023076;28;20046;-65
2021/12/06 10:57:20;;;;;;;14.88;7.18;;;;;;;;;;5024047;28;20049;-67
2021/12/06 10:59:46;;;;;;;9.77;4.63;;;;;;;;;;5028865;28;20036;-66
2021/12/06 11:02:12;;;;;;;17.20;7.95;;;;;;;;;;5027745;28;20029;-68
2021/12/06 11:04:40;;;;;;;17.02;7.38;;;;;;;;;;5007052;28;20034;-65
2021/12/06 11:07:08;;;;;;;12.30;6.45;;;;;;;;;;5029320;28;20056;-67
2021/12/06 11:09:42;;;;;;;13.50;5.93;;;;;;;;;;5026843;28;20087;-66
2021/12/06 11:12:10;;;;;;;13.00;6.45;;;;;;;;;;5027338;28;20045;-67
2021/12/06 11:14:39;;;;;;;13.60;6.55;;;;;;;;;;5028090;28;20033;-66
2021/12/06 11:17:16;;;;;;;17.30;7.45;;;;;;;;;;5026371;28;20033;-66
2021/12/06 11:19:42;;;;;;;12.35;5.80;;;;;;;;;;5025422;28;20079;-66
2021/12/06 11:22:16;;;;;;;11.23;4.70;;;;;;;;;;5024573;28;21090;-66
2021/12/06 11:24:48;;;;;;;13.75;5.88;;;;;;;;;;5008095;28;20034;-66
2021/12/06 11:27:13;;;;;;;18.20;7.82;;;;;;;;;;5025034;28;20107;-66
2021/12/06 11:30:03;;;;;;;16.75;6.75;;;;;;;;;;5021149;28;20041;-66
2021/12/06 11:32:38;;;;;;;12.25;6.38;;;;;;;;;;5029737;28;20049;-66
2021/12/06 11:35:13;;;;;;;11.07;5.40;;;;;;;;;;5020487;28;20034;-66
2021/12/06 11:37:42;;;;;;;13.25;6.30;;;;;;;;;;5005123;28;20514;-66
2021/12/06 11:40:22;;;;;;;14.70;6.90;;;;;;;;;;5025108;28;20140;-66
2021/12/06 11:42:51;;;;;;;15.25;7.40;;;;;;;;;;5020252;28;20437;-66
2021/12/06 11:45:57;;;;;;;11.43;5.63;;;;;;;;;;5016747;28;20041;-66
2021/12/06 11:48:28;;;;;;;12.07;5.47;;;;;;;;;;4978827;28;20045;-66
2021/12/06 11:51:05;;;;;;;16.63;6.90;;;;;;;;;;5021123;28;20044;-66
2021/12/06 11:53:44;;;;;;;13.15;6.53;;;;;;;;;;5035769;28;20066;-66
2021/12/06 11:56:18;;;;;;;12.38;6.00;;;;;;;;;;5026684;28;20081;-66
2021/12/06 11:58:47;;;;;;;7.70;4.32;;;;;;;;;;5025493;28;20511;-66
2021/12/06 12:01:31;;;;;;;13.30;5.53;;;;;;;;;;5026822;28;20108;-66
2021/12/06 12:04:01;;;;;;;13.75;5.50;;;;;;;;;;5014272;28;20068;-66
2021/12/06 12:06:35;;;;;;;13.10;4.97;;;;;;;;;;5025355;28;20057;-68
2021/12/06 12:09:09;;;;;;;16.65;7.07;;;;;;;;;;5025816;28;20026;-66
2021/12/06 12:11:56;;;;;;;11.13;5.53;;;;;;;;;;5011421;28;20056;-66
2021/12/06 12:14:58;;;;;;;21.25;7.20;;;;;;;;;;5027857;28;20415;-66
2021/12/06 12:17:35;;;;;;;16.33;7.43;;;;;;;;;;5010950;28;20084;-68
2021/12/06 12:20:06;;;;;;;7.18;4.03;;;;;;;;;;5010306;28;20124;-66
2021/12/06 12:22:32;;;;;;;13.88;4.95;;;;;;;;;;5022530;28;20030;-66
2021/12/06 12:25:06;;;;;;;8.82;4.32;;;;;;;;;;5024421;28;20038;-66
2021/12/06 12:27:40;;;;;;;;;;;;;;;;;;5026812;28;20033;-67
2021/12/06 12:30:06;;;;;;;12.80;6.60;;;;;;;;;;5025332;28;19940;-66
2021/12/06 12:32:31;;;;;;;14.63;6.28;;;;;;;;;;5026597;28;20033;-66
2021/12/06 12:35:00;;;;;;;15.18;6.20;;;;;;;;;;5026680;28;20045;-65
2021/12/06 12:37:25;;;;;;;18.10;7.13;;;;;;;;;;5027814;28;20038;-66
2021/12/06 12:39:58;;;;;;;13.20;5.97;;;;;;;;;;5029145;28;20037;-65
2021/12/06 12:42:24;;;;;;;14.38;6.80;;;;;;;;;;5027856;28;20064;-65
2021/12/06 12:44:51;;;;;;;12.23;5.28;;;;;;;;;;5019392;28;20033;-67
2021/12/06 12:47:24;;;;;;;10.90;5.30;;;;;;;;;;5016579;28;20061;-66
2021/12/06 12:49:53;;;;;;;10.23;4.78;;;;;;;;;;5018688;28;20037;-67
2021/12/06 12:52:37;;;;;;;9.10;4.30;;;;;;;;;;5019571;28;20602;-67
2021/12/06 12:55:17;;;;;;;11.77;5.53;;;;;;;;;;5018687;28;20037;-66
2021/12/06 12:57:42;;;;;;;14.88;7.07;;;;;;;;;;5015960;28;20057;-67
2021/12/06 13:00:17;;;;;;;13.32;5.53;;;;;;;;;;5024524;28;20068;-66
2021/12/06 13:02:42;;;;;;;11.07;5.60;;;;;;;;;;5029033;28;20044;-66
2021/12/06 13:05:11;;;;;;;12.85;5.75;;;;;;;;;;5024892;28;20034;-66
2021/12/06 13:07:39;;;;;;;5.22;3.00;;;;;;;;;;5028924;28;20117;-66
2021/12/06 13:10:45;;;;;;;12.57;6.28;;;;;;;;;;5025773;28;20577;-66
2021/12/06 13:13:24;;;;;;;11.13;5.15;;;;;;;;;;5017356;28;20048;-66
2021/12/06 13:18:35;;;;;;;9.43;4.90;;;;;;;;;;5023353;28;20495;-67
2021/12/06 13:21:26;;;;;;;13.60;6.30;;;;;;;;;;5024859;28;20033;-67
2021/12/06 13:24:12;;;;;;;12.07;5.05;;;;;;;;;;5007098;28;20495;-71
2021/12/06 13:26:42;;;;;;;9.00;4.07;;;;;;;;;;5024249;28;20029;-70
2021/12/06 13:29:10;;;;;;;9.40;4.85;;;;;;;;;;5024074;28;20030;-70
2021/12/06 13:31:36;;;;;;;10.68;4.93;;;;;;;;;;5030109;28;20529;-69
2021/12/06 13:34:23;;;;;;;14.23;6.10;;;;;;;;;;5029821;28;20029;-69
2021/12/06 13:36:54;;;;;;;11.30;5.97;;;;;;;;;;5004850;28;20068;-71
2021/12/06 13:39:32;;;;;;;9.13;4.05;;;;;;;;;;5027974;28;20091;-68
2021/12/06 13:42:00;;;;;;;15.73;7.00;;;;;;;;;;5024712;28;20133;-68
2021/12/06 13:44:42;;;;;;;11.27;5.22;;;;;;;;;;5022709;28;20025;-68
2021/12/06 13:47:19;;;;;;;10.35;4.45;;;;;;;;;;5031161;28;20044;-68
2021/12/06 13:50:01;;;;;;;16.35;6.68;;;;;;;;;;5031420;28;20108;-68
2021/12/06 13:52:35;;;;;;;12.15;5.40;;;;;;;;;;5029585;28;20160;-68
2021/12/06 13:55:02;;;;;;;13.05;5.07;;;;;;;;;;5022287;28;20122;-68
2021/12/06 13:57:29;;;;;;;9.07;4.18;;;;;;;;;;5019941;28;20501;-69
2021/12/06 13:59:57;;;;;;;16.23;7.15;;;;;;;;;;5029675;28;20033;-68
2021/12/06 14:02:28;;;;;;;14.90;6.20;;;;;;;;;;5029942;28;20033;-69
2021/12/06 14:04:58;;;;;;;12.98;5.80;;;;;;;;;;5027305;28;20029;-69
2021/12/06 14:07:25;;;;;;;15.73;6.13;;;;;;;;;;5025588;28;20449;-71
2021/12/06 14:09:52;;;;;;;13.73;5.88;;;;;;;;;;5013864;28;20056;-71
2021/12/06 14:12:21;;;;;;;16.35;6.93;;;;;;;;;;5025600;28;20081;-70
2021/12/06 14:14:51;;;;;;;12.35;4.97;;;;;;;;;;5023893;28;20542;-69
2021/12/06 14:17:18;;;;;;;8.98;4.68;;;;;;;;;;5031828;28;20028;-69
2021/12/06 14:19:44;;;;;;;14.25;6.43;;;;;;;;;;5028395;28;20037;-68
2021/12/06 14:22:12;;;;;;;12.05;5.32;;;;;;;;;;5028323;28;20034;-68
2021/12/06 14:24:39;;;;;;;12.00;6.03;;;;;;;;;;5027233;28;20037;-67
2021/12/06 14:27:06;;;;;;;15.55;6.85;;;;;;;;;;5026030;28;20045;-68
2021/12/06 14:29:33;;;;;;;11.45;5.25;;;;;;;;;;5029416;28;20021;-69
2021/12/06 14:32:01;;;;;;;9.20;4.72;;;;;;;;;;5025851;28;20084;-70
2021/12/06 14:34:29;;;;;;;11.77;6.00;;;;;;;;;;5026872;28;20559;-71
2021/12/06 14:36:55;;;;;;;9.40;5.03;;;;;;;;;;5029949;28;20546;-69
2021/12/06 14:39:23;;;;;;;13.07;6.10;;;;;;;;;;5025760;28;20041;-72
2021/12/06 14:41:50;;;;;;;11.13;5.72;;;;;;;;;;5026848;28;20046;-68